createdAt,value
2019-02-10T14:22:24.232Z,10.04
2019-02-10T14:24:53.712Z,10.03
2019-02-10T14:27:23.192Z,10.00
2019-02-10T14:29:53.281Z,9.91
2019-02-10T14:32:22.623Z,9.87
2019-02-10T14:34:51.972Z,9.88
2019-02-10T14:37:21.306Z,9.78
2019-02-10T14:39:50.692Z,9.70
2019-02-10T14:42:20.051Z,9.64
2019-02-10T14:44:49.384Z,9.56
2019-02-10T14:47:18.851Z,9.54
2019-02-10T14:49:48.293Z,9.45
2019-02-10T14:52:17.587Z,9.41
2019-02-10T14:54:46.945Z,9.21
2019-02-10T14:57:16.348Z,9.21
2019-02-10T14:59:45.753Z,9.14
2019-02-10T15:02:15.076Z,9.07
2019-02-10T15:04:44.443Z,9.00
2019-02-10T15:07:14.087Z,8.96
2019-02-10T15:09:43.515Z,8.94
2019-02-10T15:12:13.012Z,8.95
2019-02-10T15:14:42.432Z,8.96
2019-02-10T15:17:11.803Z,8.94
2019-02-10T15:19:41.159Z,8.98
2019-02-10T15:22:10.447Z,8.98
2019-02-10T15:24:39.812Z,9.02
2019-02-10T15:27:09.231Z,8.95
2019-02-10T15:29:38.970Z,8.99
2019-02-10T15:32:16.469Z,8.92
2019-02-10T15:34:37.856Z,8.89
2019-02-10T15:37:07.188Z,8.82
2019-02-10T15:39:36.604Z,8.76
2019-02-10T15:42:09.430Z,8.81
2019-02-10T15:44:36.547Z,8.83
2019-02-10T15:47:05.967Z,8.86
2019-02-10T15:49:36.071Z,8.93
2019-02-10T15:52:05.465Z,8.87
2019-02-10T15:54:34.792Z,8.88
2019-02-10T15:57:04.149Z,8.94
2019-02-10T15:59:33.440Z,8.99
2019-02-10T16:02:02.804Z,8.97
2019-02-10T16:04:32.228Z,8.98
2019-02-10T16:07:01.623Z,9.04
2019-02-10T16:09:31.055Z,9.10
2019-02-10T16:12:00.284Z,9.11
2019-02-10T16:14:31.173Z,9.07
2019-02-10T16:17:00.622Z,9.04
2019-02-10T16:19:30.205Z,9.02
2019-02-10T16:21:59.556Z,8.95
2019-02-10T16:24:28.902Z,8.95
2019-02-10T16:26:58.268Z,8.94
2019-02-10T16:29:27.691Z,8.95
2019-02-10T16:31:57.139Z,8.96
2019-02-10T16:34:27.166Z,8.97
2019-02-10T16:36:56.512Z,8.91
2019-02-10T16:39:26.526Z,8.90
2019-02-10T16:41:55.841Z,8.92
2019-02-10T16:44:25.210Z,8.90
2019-02-10T16:46:54.513Z,8.89
2019-02-10T16:49:24.077Z,8.86
2019-02-10T16:51:53.408Z,8.84
2019-02-10T16:54:22.740Z,8.73
2019-02-10T16:56:52.171Z,8.58
2019-02-10T16:59:21.600Z,8.57
2019-02-10T17:01:50.923Z,8.57
2019-02-10T17:04:20.191Z,8.61
2019-02-10T17:06:49.605Z,8.59
2019-02-10T17:09:18.940Z,8.49
2019-02-10T17:11:50.031Z,8.36
2019-02-10T17:14:19.280Z,8.29
2019-02-10T17:16:48.720Z,8.29
2019-02-10T17:19:17.995Z,8.22
2019-02-10T17:21:47.301Z,8.17
2019-02-10T17:24:16.603Z,8.18
2019-02-10T17:26:45.935Z,8.14
2019-02-10T17:29:15.247Z,8.10
2019-02-10T17:31:45.212Z,8.01
2019-02-10T17:34:14.544Z,8.00
2019-02-10T17:36:43.940Z,7.91
2019-02-10T17:39:18.783Z,7.97
2019-02-10T17:41:49.228Z,7.83
2019-02-10T17:44:18.612Z,7.74
2019-02-10T17:46:47.988Z,7.66
2019-02-10T17:49:17.340Z,7.61
2019-02-10T17:51:46.668Z,7.63
2019-02-10T17:54:15.984Z,7.58
2019-02-10T17:56:45.355Z,7.51
2019-02-10T17:59:14.700Z,7.53
2019-02-10T18:01:44.942Z,7.51
2019-02-10T18:04:14.392Z,7.48
2019-02-10T18:06:43.743Z,7.41
2019-02-10T18:09:13.060Z,7.43
2019-02-10T18:11:42.347Z,7.42
2019-02-10T18:14:16.735Z,7.43
2019-02-10T18:16:51.051Z,7.44
2019-02-10T18:19:28.414Z,7.44
2019-02-10T18:22:33.191Z,7.44
2019-02-10T18:25:32.968Z,7.48
2019-02-10T18:28:06.611Z,7.44
2019-02-10T18:30:43.004Z,7.50
2019-02-10T18:33:17.673Z,7.51
2019-02-10T18:35:59.187Z,7.53
2019-02-10T18:38:34.838Z,7.53
2019-02-10T18:41:13.255Z,7.51
2019-02-10T18:43:47.855Z,7.50
2019-02-10T18:46:24.261Z,7.51
2019-02-10T18:49:12.820Z,7.58
2019-02-10T18:51:47.272Z,7.56
2019-02-10T18:55:20.436Z,7.57
2019-02-10T18:57:55.896Z,7.60
2019-02-10T19:00:38.039Z,7.59
2019-02-10T19:03:25.776Z,7.61
2019-02-10T19:06:02.045Z,7.63
2019-02-10T19:08:43.464Z,7.57
2019-02-10T19:11:17.627Z,7.61
2019-02-10T19:13:51.056Z,7.66
2019-02-10T19:16:25.436Z,7.58
2019-02-10T19:19:06.100Z,7.61
2019-02-10T19:21:40.390Z,7.57
2019-02-10T19:24:30.016Z,7.57
2019-02-10T19:27:05.430Z,7.56
2019-02-10T19:29:41.868Z,7.57
2019-02-10T19:32:21.039Z,7.52
2019-02-10T19:37:03.565Z,7.53
2019-02-10T19:39:50.211Z,7.47
2019-02-10T19:42:34.785Z,7.38
2019-02-10T19:45:12.297Z,7.35
2019-02-10T19:47:47.332Z,7.30
2019-02-10T19:50:21.847Z,7.22
2019-02-10T19:53:00.224Z,7.27
2019-02-10T19:55:40.898Z,7.24
2019-02-10T19:58:15.236Z,7.10
2019-02-10T20:00:49.683Z,7.14
2019-02-10T20:03:24.088Z,7.10
2019-02-10T20:06:18.563Z,7.18
2019-02-10T20:09:11.163Z,7.17
2019-02-10T20:11:46.431Z,7.13
2019-02-10T20:14:21.253Z,7.07
2019-02-10T20:17:27.486Z,7.00
2019-02-10T20:22:06.091Z,7.08
2019-02-10T20:24:41.575Z,7.12
2019-02-10T20:27:16.008Z,7.11
2019-02-10T20:29:50.501Z,7.21
2019-02-10T20:32:23.943Z,7.09
2019-02-10T20:35:15.554Z,7.04
2019-02-10T20:38:47.668Z,7.00
2019-02-10T20:41:21.215Z,6.95
2019-02-10T20:43:59.512Z,6.97
2019-02-10T20:46:49.233Z,7.03
2019-02-10T20:50:22.544Z,7.01
2019-02-10T20:53:01.952Z,7.03
2019-02-10T20:55:36.312Z,7.04
2019-02-10T20:58:09.711Z,7.00
2019-02-10T21:00:48.302Z,7.04
2019-02-10T21:03:22.744Z,6.97
2019-02-10T21:06:00.887Z,6.90
2019-02-10T21:08:34.367Z,6.92
2019-02-10T21:11:13.597Z,6.92
2019-02-10T21:13:48.849Z,6.96
2019-02-10T21:16:28.273Z,6.95
2019-02-10T21:19:04.603Z,6.97
2019-02-10T21:21:39.035Z,6.95
2019-02-10T21:24:16.565Z,6.97
2019-02-10T21:26:52.912Z,6.92
2019-02-10T21:29:26.303Z,6.96
2019-02-10T21:32:03.664Z,6.93
2019-02-10T21:34:55.020Z,6.96
2019-02-10T21:37:33.288Z,7.00
2019-02-10T21:40:09.145Z,6.98
2019-02-10T21:42:43.692Z,6.98
2019-02-10T21:46:18.750Z,7.03
2019-02-10T21:48:54.187Z,6.95
2019-02-10T21:51:23.755Z,6.97
2019-02-10T21:53:53.103Z,6.88
2019-02-10T21:56:22.448Z,6.98
2019-02-10T21:58:52.794Z,6.98
2019-02-10T22:01:22.092Z,6.98
2019-02-10T22:03:51.482Z,6.98
2019-02-10T22:06:20.773Z,7.00
2019-02-10T22:08:50.230Z,7.01
2019-02-10T22:11:19.548Z,6.93
2019-02-10T22:13:48.940Z,7.01
2019-02-10T22:16:18.319Z,7.06
2019-02-10T22:18:54.356Z,7.03
2019-02-10T22:21:24.649Z,6.96
2019-02-10T22:23:54.654Z,7.04
2019-02-10T22:26:23.977Z,7.05
2019-02-10T22:28:53.447Z,7.02
2019-02-10T22:31:26.167Z,7.00
2019-02-10T22:33:55.535Z,7.07
2019-02-10T22:36:25.695Z,7.01
2019-02-10T22:38:55.732Z,7.04
2019-02-10T22:41:25.080Z,7.05
2019-02-10T22:43:54.616Z,6.99
2019-02-10T22:46:23.965Z,6.99
2019-02-10T22:48:54.040Z,7.03
2019-02-10T22:51:24.015Z,6.85
2019-02-10T22:53:54.331Z,6.88
2019-02-10T22:56:23.647Z,6.83
2019-02-10T22:58:52.982Z,6.71
2019-02-10T23:01:22.367Z,6.73
2019-02-10T23:03:52.343Z,6.73
2019-02-10T23:06:21.671Z,6.73
2019-02-10T23:08:51.131Z,6.70
2019-02-10T23:11:21.157Z,6.72
2019-02-10T23:13:50.508Z,6.68
2019-02-10T23:16:19.894Z,6.70
2019-02-10T23:18:49.239Z,6.72
2019-02-10T23:21:25.172Z,6.66
2019-02-10T23:23:54.482Z,6.68
2019-02-10T23:26:24.807Z,6.61
2019-02-10T23:28:54.692Z,6.64
2019-02-10T23:31:24.127Z,6.68
2019-02-10T23:33:53.475Z,6.75
2019-02-10T23:36:22.784Z,6.84
2019-02-10T23:38:52.147Z,6.85
2019-02-10T23:41:21.488Z,6.83
2019-02-10T23:43:50.837Z,6.89
2019-02-10T23:46:20.173Z,6.88
2019-02-10T23:48:49.579Z,6.77
2019-02-10T23:51:18.871Z,6.72
2019-02-10T23:53:48.273Z,6.71
2019-02-10T23:56:17.656Z,6.71
2019-02-10T23:58:47.013Z,6.69
